createdAt,value
2023-01-11T00:00:09.478Z,101308.16
2023-01-11T00:02:48.207Z,101311.81
2023-01-11T00:05:19.842Z,101310.13
2023-01-11T00:07:55.801Z,101314.56
2023-01-11T00:10:33.333Z,101306.03
2023-01-11T00:13:04.086Z,101308.75
2023-01-11T00:15:36.594Z,101310.38
2023-01-11T00:18:09.360Z,101308.00
2023-01-11T00:20:42.492Z,101308.75
2023-01-11T00:23:15.776Z,101306.59
2023-01-11T00:25:49.916Z,101302.16
2023-01-11T00:28:19.985Z,101296.16
2023-01-11T00:30:54.024Z,101298.47
2023-01-11T00:33:27.916Z,101296.47
2023-01-11T00:35:57.925Z,101285.19
2023-01-11T00:38:44.123Z,101282.75
2023-01-11T00:41:35.636Z,101285.63
2023-01-11T00:44:24.912Z,101281.28
2023-01-11T00:47:10.844Z,101286.81
2023-01-11T00:49:41.130Z,101284.06
2023-01-11T00:52:12.303Z,101280.34
2023-01-11T00:54:45.329Z,101288.00
2023-01-11T00:57:15.964Z,101279.53
2023-01-11T00:59:49.478Z,101281.53
2023-01-11T01:02:21.351Z,101283.56
2023-01-11T01:04:51.991Z,101284.00
2023-01-11T01:07:24.549Z,101291.22
2023-01-11T01:09:57.172Z,101285.88
2023-01-11T01:12:43.351Z,101294.78
2023-01-11T01:15:11.512Z,101286.25
2023-01-11T01:17:41.568Z,101296.69
2023-01-11T01:20:14.808Z,101309.53
2023-01-11T01:22:47.559Z,101313.97
2023-01-11T01:25:20.683Z,101317.19
2023-01-11T01:27:55.682Z,101318.19
2023-01-11T01:30:28.398Z,101311.28
2023-01-11T01:33:00.530Z,101318.94
2023-01-11T01:35:33.654Z,101317.38
2023-01-11T01:38:04.106Z,101321.88
2023-01-11T01:40:37.064Z,101325.44
2023-01-11T01:43:12.133Z,101320.25
2023-01-11T01:45:41.497Z,101317.72
2023-01-11T01:48:12.979Z,101318.19
2023-01-11T01:50:57.680Z,101327.84
2023-01-11T01:53:35.829Z,101325.84
2023-01-11T01:56:07.610Z,101318.41
2023-01-11T01:58:43.970Z,101322.91
2023-01-11T02:01:37.433Z,101324.13
2023-01-11T02:04:15.558Z,101314.91
2023-01-11T02:06:48.844Z,101316.09
2023-01-11T02:09:29.783Z,101313.41
2023-01-11T02:12:00.788Z,101315.91
2023-01-11T02:14:35.764Z,101310.22
2023-01-11T02:17:10.980Z,101313.91
2023-01-11T02:20:09.174Z,101314.22
2023-01-11T02:23:23.965Z,101303.81
2023-01-11T02:26:33.718Z,101308.81
2023-01-11T02:29:16.072Z,101306.28
2023-01-11T02:32:05.655Z,101308.53
2023-01-11T02:34:50.218Z,101310.28
2023-01-11T02:37:28.182Z,101303.75
2023-01-11T02:40:02.027Z,101306.56
2023-01-11T02:43:03.581Z,101298.53
2023-01-11T02:45:37.565Z,101290.53
2023-01-11T02:48:14.256Z,101295.38
2023-01-11T02:50:56.665Z,101293.00
2023-01-11T02:53:39.709Z,101293.00
2023-01-11T02:56:12.318Z,101286.47
2023-01-11T02:58:44.839Z,101293.38
2023-01-11T03:01:18.566Z,101301.88
2023-01-11T03:03:53.971Z,101305.13
2023-01-11T03:06:28.758Z,101301.97
2023-01-11T03:09:19.030Z,101296.84
2023-01-11T03:12:32.112Z,101303.34
2023-01-11T03:15:50.373Z,101305.66
2023-01-11T03:18:27.221Z,101305.00
2023-01-11T03:21:16.213Z,101312.22
2023-01-11T03:24:01.582Z,101300.53
2023-01-11T03:26:44.248Z,101311.50
2023-01-11T03:29:33.911Z,101289.81
2023-01-11T03:32:26.620Z,101296.91
2023-01-11T03:35:44.723Z,101296.88
2023-01-11T03:38:27.027Z,101307.19
2023-01-11T03:41:18.397Z,101298.91
2023-01-11T03:43:52.767Z,101299.53
2023-01-11T03:46:39.126Z,101292.13
2023-01-11T03:49:18.624Z,101288.78
2023-01-11T03:51:51.202Z,101292.25
2023-01-11T03:54:24.927Z,101290.16
2023-01-11T03:57:16.246Z,101290.47
2023-01-11T03:59:49.457Z,101294.84
2023-01-11T04:02:25.776Z,101281.13
2023-01-11T04:04:59.261Z,101281.88
2023-01-11T04:07:35.520Z,101273.03
2023-01-11T04:10:08.482Z,101273.28
2023-01-11T04:12:38.983Z,101273.97
2023-01-11T04:15:13.481Z,101277.94
2023-01-11T04:17:44.256Z,101283.19
2023-01-11T04:20:15.347Z,101286.34
2023-01-11T04:22:51.239Z,101284.69
2023-01-11T04:25:21.827Z,101295.97
2023-01-11T04:27:54.638Z,101302.81
2023-01-11T04:30:27.672Z,101304.88
2023-01-11T04:33:00.795Z,101313.88
2023-01-11T04:35:29.181Z,101305.75
2023-01-11T04:38:01.841Z,101311.78
2023-01-11T04:40:32.179Z,101310.97
2023-01-11T04:43:05.547Z,101314.22
2023-01-11T04:45:35.712Z,101312.91
2023-01-11T04:48:06.405Z,101326.25
2023-01-11T04:50:42.334Z,101318.25
2023-01-11T04:53:15.321Z,101315.06
2023-01-11T04:55:47.570Z,101313.88
2023-01-11T04:58:20.166Z,101308.16
2023-01-11T05:00:53.654Z,101307.25
2023-01-11T05:03:22.275Z,101306.91
2023-01-11T05:05:57.721Z,101308.38
2023-01-11T05:08:29.226Z,101323.78
2023-01-11T05:11:00.060Z,101329.75
2023-01-11T05:13:45.173Z,101314.00
2023-01-11T05:16:23.755Z,101317.38
2023-01-11T05:19:01.482Z,101323.28
2023-01-11T05:21:36.248Z,101310.88
2023-01-11T05:24:08.425Z,101301.84
2023-01-11T05:26:43.242Z,101305.84
2023-01-11T05:29:16.162Z,101291.84
2023-01-11T05:31:46.068Z,101306.34
2023-01-11T05:34:20.210Z,101305.94
2023-01-11T05:36:50.245Z,101323.22
2023-01-11T05:39:20.112Z,101324.03
2023-01-11T05:41:52.492Z,101317.53
2023-01-11T05:44:38.955Z,101318.78
2023-01-11T05:47:12.547Z,101315.97
2023-01-11T05:49:43.212Z,101324.78
2023-01-11T05:52:14.278Z,101317.13
2023-01-11T05:54:41.894Z,101315.22
2023-01-11T05:57:11.887Z,101324.09
2023-01-11T05:59:47.640Z,101320.19
2023-01-11T06:02:25.177Z,101309.72
2023-01-11T06:04:58.378Z,101314.81
2023-01-11T06:07:28.319Z,101307.16
2023-01-11T06:09:56.517Z,101307.56
2023-01-11T06:12:26.724Z,101310.75
2023-01-11T06:15:03.603Z,101308.31
2023-01-11T06:17:33.756Z,101313.13
2023-01-11T06:20:07.197Z,101306.63
2023-01-11T06:22:37.404Z,101310.19
2023-01-11T06:25:05.479Z,101309.69
2023-01-11T06:27:33.000Z,101313.00
2023-01-11T06:30:13.707Z,101316.94
2023-01-11T06:32:46.396Z,101316.53
2023-01-11T06:35:30.948Z,101315.75
2023-01-11T06:38:06.495Z,101319.06
2023-01-11T06:40:36.904Z,101315.09
2023-01-11T06:43:16.482Z,101308.59
2023-01-11T06:45:46.724Z,101315.91
2023-01-11T06:48:28.724Z,101320.28
2023-01-11T06:51:01.495Z,101309.81
2023-01-11T06:53:31.678Z,101315.91
2023-01-11T06:56:04.650Z,101315.91
2023-01-11T06:58:35.639Z,101319.88
2023-01-11T07:01:03.528Z,101321.53
2023-01-11T07:03:39.496Z,101317.59
2023-01-11T07:06:12.454Z,101321.97
2023-01-11T07:08:45.567Z,101316.84
2023-01-11T07:11:17.474Z,101320.78
2023-01-11T07:13:50.774Z,101321.16
2023-01-11T07:16:26.900Z,101322.59
2023-01-11T07:18:57.342Z,101318.66
2023-01-11T07:21:33.715Z,101323.47
2023-01-11T07:24:06.585Z,101329.69
2023-01-11T07:26:41.550Z,101331.53
2023-01-11T07:29:13.610Z,101326.09
2023-01-11T07:31:51.234Z,101339.63
2023-01-11T07:34:21.752Z,101336.91
2023-01-11T07:36:53.718Z,101336.38
2023-01-11T07:39:38.498Z,101336.47
2023-01-11T07:42:34.629Z,101340.13
2023-01-11T07:45:08.299Z,101331.06
2023-01-11T07:47:41.020Z,101336.50
2023-01-11T07:50:11.519Z,101342.47
2023-01-11T07:52:48.221Z,101355.97
2023-01-11T07:55:25.446Z,101351.13
2023-01-11T07:57:57.547Z,101351.13
2023-01-11T08:00:32.677Z,101349.34
2023-01-11T08:03:08.014Z,101362.16
2023-01-11T08:05:43.209Z,101360.75
2023-01-11T08:08:14.717Z,101355.06
2023-01-11T08:10:47.684Z,101355.06
2023-01-11T08:13:37.092Z,101359.13
2023-01-11T08:16:08.163Z,101365.75
2023-01-11T08:18:41.781Z,101362.25
2023-01-11T08:21:10.597Z,101370.09
2023-01-11T08:23:38.368Z,101361.97
2023-01-11T08:26:10.912Z,101361.03
2023-01-11T08:28:41.607Z,101364.34
2023-01-11T08:31:12.543Z,101356.97
2023-01-11T08:33:43.076Z,101355.34
2023-01-11T08:36:14.833Z,101363.16
2023-01-11T08:38:43.601Z,101371.28
2023-01-11T08:41:20.094Z,101368.59
2023-01-11T08:43:51.635Z,101365.22
2023-01-11T08:46:28.809Z,101362.41
2023-01-11T08:49:02.558Z,101378.16
2023-01-11T08:51:35.893Z,101373.47
2023-01-11T08:54:04.610Z,101370.50
2023-01-11T08:56:35.627Z,101379.22
2023-01-11T08:59:07.994Z,101394.31
2023-01-11T09:01:41.553Z,101394.50
2023-01-11T09:04:25.475Z,101397.16
2023-01-11T09:07:01.409Z,101399.97
2023-01-11T09:09:30.411Z,101393.34
2023-01-11T09:12:05.580Z,101398.13
2023-01-11T09:14:42.773Z,101391.94
2023-01-11T09:17:15.992Z,101399.56
2023-01-11T09:19:47.676Z,101401.56
2023-01-11T09:22:19.342Z,101402.91
2023-01-11T09:24:52.677Z,101404.03
2023-01-11T09:27:29.186Z,101417.25
2023-01-11T09:30:01.612Z,101412.75
2023-01-11T09:32:32.533Z,101405.25
2023-01-11T09:35:03.363Z,101411.28
2023-01-11T09:37:33.766Z,101410.25
2023-01-11T09:40:07.440Z,101410.44
2023-01-11T09:42:47.356Z,101403.38
2023-01-11T09:45:30.586Z,101406.28
2023-01-11T09:48:33.410Z,101404.53
2023-01-11T09:51:09.097Z,101400.91
2023-01-11T09:53:45.839Z,101410.69
2023-01-11T09:56:28.221Z,101405.69
2023-01-11T09:59:23.213Z,101407.34
2023-01-11T10:02:05.637Z,101404.59
2023-01-11T10:05:01.415Z,101400.88
2023-01-11T10:07:49.926Z,101405.28
2023-01-11T10:18:29.108Z,101393.00
2023-01-11T10:18:29.799Z,101390.69
2023-01-11T10:20:11.858Z,101390.19
2023-01-11T10:22:47.827Z,101378.09
2023-01-11T10:25:26.588Z,101372.13
2023-01-11T10:28:00.617Z,101370.84
2023-01-11T10:31:09.892Z,101366.72
2023-01-11T10:34:01.573Z,101354.84
2023-01-11T10:37:18.386Z,101359.72
2023-01-11T10:40:18.034Z,101354.97
2023-01-11T10:43:13.021Z,101361.72
2023-01-11T10:45:52.724Z,101357.31
2023-01-11T10:48:29.769Z,101353.22
2023-01-11T10:51:32.421Z,101348.19
2023-01-11T10:54:06.769Z,101343.28
2023-01-11T10:57:02.393Z,101344.13
2023-01-11T10:59:54.042Z,101347.72
2023-01-11T11:02:52.424Z,101355.22
2023-01-11T11:05:45.783Z,101354.53
2023-01-11T11:08:33.496Z,101346.69
2023-01-11T11:11:22.814Z,101346.88
2023-01-11T11:14:23.237Z,101339.81
2023-01-11T11:17:01.699Z,101342.75
2023-01-11T11:19:36.175Z,101344.28
2023-01-11T11:22:04.518Z,101343.44
2023-01-11T11:24:38.674Z,101334.78
2023-01-11T11:27:21.752Z,101328.25
2023-01-11T11:29:57.770Z,101330.00
2023-01-11T11:32:30.791Z,101327.75
2023-01-11T11:35:02.473Z,101324.25
2023-01-11T11:37:42.647Z,101323.81
2023-01-11T11:40:30.738Z,101308.38
2023-01-11T11:43:19.825Z,101309.66
2023-01-11T11:45:51.732Z,101302.31
2023-01-11T11:48:21.958Z,101295.81
2023-01-11T11:50:55.441Z,101300.28
2023-01-11T11:53:37.821Z,101290.88
2023-01-11T11:56:26.818Z,101275.78
2023-01-11T11:58:59.457Z,101286.41
2023-01-11T12:01:35.763Z,101284.31
2023-01-11T12:04:14.389Z,101286.09
2023-01-11T12:07:04.810Z,101278.78
2023-01-11T12:09:36.707Z,101281.44
2023-01-11T12:12:04.882Z,101283.28
2023-01-11T12:14:40.709Z,101278.16
2023-01-11T12:17:37.755Z,101278.34
2023-01-11T12:20:25.486Z,101271.88
2023-01-11T12:23:13.865Z,101262.13
2023-01-11T12:26:27.324Z,101262.03
2023-01-11T12:29:37.054Z,101260.38
2023-01-11T12:32:42.518Z,101257.81
2023-01-11T12:35:49.196Z,101262.47
2023-01-11T12:38:55.054Z,101261.56
2023-01-11T12:41:43.982Z,101251.59
2023-01-11T12:44:19.443Z,101244.22
2023-01-11T12:47:09.959Z,101238.75
2023-01-11T12:49:46.498Z,101241.50
2023-01-11T12:52:44.481Z,101237.56
2023-01-11T12:55:36.432Z,101226.34
2023-01-11T12:58:38.256Z,101227.88
2023-01-11T13:01:36.865Z,101234.63
2023-01-11T13:04:23.856Z,101236.38
2023-01-11T13:07:24.703Z,101238.56
2023-01-11T13:10:13.213Z,101224.78
2023-01-11T13:12:58.583Z,101216.63
2023-01-11T13:16:30.534Z,101214.56
2023-01-11T13:19:16.902Z,101211.88
2023-01-11T13:21:55.317Z,101215.47
2023-01-11T13:24:36.271Z,101210.72
2023-01-11T13:27:22.500Z,101206.53
2023-01-11T13:30:08.062Z,101199.28
2023-01-11T13:32:43.352Z,101189.56
2023-01-11T13:35:17.691Z,101186.41
2023-01-11T13:38:20.589Z,101184.34
2023-01-11T13:40:55.037Z,101187.63
2023-01-11T13:43:46.063Z,101185.44
2023-01-11T13:46:42.131Z,101188.72
2023-01-11T13:49:18.413Z,101186.22
2023-01-11T13:51:59.211Z,101183.03
2023-01-11T13:54:39.628Z,101187.53
2023-01-11T13:57:34.431Z,101189.53
2023-01-11T14:00:22.138Z,101181.44
2023-01-11T14:03:24.765Z,101175.75
2023-01-11T14:06:29.552Z,101164.41
2023-01-11T14:09:20.609Z,101163.91
2023-01-11T14:12:19.037Z,101168.94
2023-01-11T14:15:18.624Z,101173.94
2023-01-11T14:17:57.365Z,101185.81
2023-01-11T14:21:18.674Z,101174.00
2023-01-11T14:24:01.254Z,101178.47
2023-01-11T14:26:43.964Z,101181.22
2023-01-11T14:29:45.327Z,101172.56
2023-01-11T14:32:22.351Z,101187.78
2023-01-11T14:35:42.659Z,101188.56
2023-01-11T14:39:06.804Z,101188.59
2023-01-11T14:41:48.385Z,101178.56
2023-01-11T14:44:53.594Z,101172.50
2023-01-11T14:47:42.564Z,101180.22
2023-01-11T14:50:33.385Z,101176.16
2023-01-11T14:53:03.908Z,101180.56
2023-01-11T14:55:45.261Z,101177.78
2023-01-11T14:58:32.827Z,101176.16
2023-01-11T15:01:00.742Z,101160.56
2023-01-11T15:03:50.932Z,101166.66
2023-01-11T15:06:27.213Z,101161.06
2023-01-11T15:09:00.960Z,101145.31
2023-01-11T15:11:38.272Z,101137.63
2023-01-11T15:14:33.861Z,101140.47
2023-01-11T15:17:23.312Z,101141.69
2023-01-11T15:19:56.246Z,101140.88
2023-01-11T15:22:40.190Z,101126.91
2023-01-11T15:25:20.242Z,101127.72
2023-01-11T15:27:54.685Z,101127.03
2023-01-11T15:30:29.017Z,101127.44
2023-01-11T15:33:18.910Z,101123.41
2023-01-11T15:35:56.016Z,101113.34
2023-01-11T15:38:37.220Z,101108.84
2023-01-11T15:41:36.686Z,101108.44
2023-01-11T15:44:43.809Z,101119.41
2023-01-11T15:48:00.149Z,101122.63
2023-01-11T15:51:09.681Z,101121.03
2023-01-11T15:53:56.586Z,101125.06
2023-01-11T15:56:43.071Z,101135.22
2023-01-11T15:59:26.120Z,101140.06
2023-01-11T16:02:18.273Z,101138.47
2023-01-11T16:04:54.608Z,101149.41
2023-01-11T16:07:43.456Z,101142.06
2023-01-11T16:11:04.119Z,101157.41
2023-01-11T16:14:09.904Z,101153.44
2023-01-11T16:16:57.423Z,101163.16
2023-01-11T16:19:36.021Z,101172.50
2023-01-11T16:22:17.723Z,101170.47
2023-01-11T16:24:56.643Z,101175.75
2023-01-11T16:27:33.042Z,101173.28
2023-01-11T16:30:06.715Z,101178.16
2023-01-11T16:32:43.570Z,101173.69
2023-01-11T16:35:25.879Z,101162.69
2023-01-11T16:37:58.752Z,101157.03
2023-01-11T16:40:38.059Z,101162.63
2023-01-11T16:43:30.053Z,101163.94
2023-01-11T16:46:03.590Z,101164.31
2023-01-11T16:48:40.122Z,101168.00
2023-01-11T16:51:23.353Z,101179.69
2023-01-11T16:54:05.587Z,101186.97
2023-01-11T16:56:44.349Z,101184.22
2023-01-11T16:59:24.693Z,101179.41
2023-01-11T17:02:03.722Z,101178.59
2023-01-11T17:04:48.527Z,101177.72
2023-01-11T17:07:34.849Z,101175.22
2023-01-11T17:10:44.740Z,101174.28
2023-01-11T17:13:50.935Z,101175.38
2023-01-11T17:16:33.069Z,101181.81
2023-01-11T17:19:16.353Z,101174.88
2023-01-11T17:22:04.002Z,101179.97
2023-01-11T17:24:47.549Z,101183.19
2023-01-11T17:27:28.319Z,101179.94
2023-01-11T17:29:59.274Z,101177.88
2023-01-11T17:32:49.555Z,101177.34
2023-01-11T17:35:22.372Z,101183.69
2023-01-11T17:37:55.797Z,101185.75
2023-01-11T17:40:24.542Z,101186.94
2023-01-11T17:43:14.382Z,101181.25
2023-01-11T17:46:02.159Z,101191.63
2023-01-11T17:48:35.790Z,101187.91
2023-01-11T17:51:05.432Z,101190.59
2023-01-11T17:53:40.211Z,101191.00
2023-01-11T17:56:30.200Z,101203.06
2023-01-11T17:59:23.694Z,101198.59
2023-01-11T18:01:59.824Z,101205.41
2023-01-11T18:04:28.121Z,101205.41
2023-01-11T18:07:04.646Z,101217.88
2023-01-11T18:09:36.392Z,101223.50
2023-01-11T18:12:17.613Z,101227.91
2023-01-11T18:15:18.257Z,101227.06
2023-01-11T18:17:45.754Z,101216.13
2023-01-11T18:20:15.693Z,101218.94
2023-01-11T18:23:03.906Z,101208.41
2023-01-11T18:25:37.012Z,101211.59
2023-01-11T18:28:25.940Z,101209.97
2023-01-11T18:30:57.920Z,101210.03
2023-01-11T18:33:33.339Z,101205.56
2023-01-11T18:36:19.686Z,101201.88
2023-01-11T18:38:50.557Z,101197.81
2023-01-11T18:41:36.973Z,101196.88
2023-01-11T18:44:06.149Z,101206.53
2023-01-11T18:46:33.527Z,101206.13
2023-01-11T18:49:01.112Z,101209.72
2023-01-11T18:51:33.680Z,101209.31
2023-01-11T18:54:04.116Z,101197.59
2023-01-11T18:56:39.238Z,101189.16
2023-01-11T18:59:08.286Z,101195.63
2023-01-11T19:01:52.614Z,101186.94
2023-01-11T19:04:29.581Z,101183.28
2023-01-11T19:06:57.209Z,101202.19
2023-01-11T19:09:26.866Z,101213.06
2023-01-11T19:11:57.556Z,101219.59
2023-01-11T19:14:25.442Z,101216.81
2023-01-11T19:16:59.141Z,101214.41
2023-01-11T19:19:26.890Z,101206.03
2023-01-11T19:21:54.547Z,101214.09
2023-01-11T19:24:22.118Z,101210.84
2023-01-11T19:26:50.013Z,101214.53
2023-01-11T19:29:19.044Z,101216.56
2023-01-11T19:31:47.563Z,101212.13
2023-01-11T19:34:20.699Z,101216.59
2023-01-11T19:36:54.317Z,101219.38
2023-01-11T19:39:27.556Z,101227.41
2023-01-11T19:42:00.888Z,101231.06
2023-01-11T19:44:36.993Z,101233.13
2023-01-11T19:47:13.462Z,101239.47
2023-01-11T19:49:47.331Z,101254.78
2023-01-11T19:52:20.969Z,101252.72
2023-01-11T19:54:59.935Z,101243.81
2023-01-11T19:57:30.392Z,101256.72
2023-01-11T20:00:06.326Z,101256.72
2023-01-11T20:02:42.568Z,101264.81
2023-01-11T20:05:13.642Z,101280.06
2023-01-11T20:07:46.429Z,101271.59
2023-01-11T20:10:17.172Z,101273.63
2023-01-11T20:12:44.777Z,101276.41
2023-01-11T20:15:13.516Z,101273.91
2023-01-11T20:17:41.028Z,101268.91
2023-01-11T20:20:09.697Z,101269.72
2023-01-11T20:22:39.452Z,101270.81
2023-01-11T20:25:07.478Z,101270.75
2023-01-11T20:27:40.644Z,101259.78
2023-01-11T20:30:11.436Z,101259.47
2023-01-11T20:32:42.573Z,101260.78
2023-01-11T20:35:10.784Z,101243.38
2023-01-11T20:37:42.274Z,101252.28
2023-01-11T20:40:13.588Z,101247.16
2023-01-11T20:42:42.188Z,101253.16
2023-01-11T20:45:18.452Z,101245.53
2023-01-11T20:47:49.672Z,101241.09
2023-01-11T20:50:19.834Z,101243.94
2023-01-11T20:52:54.374Z,101244.75
2023-01-11T20:55:23.307Z,101248.38
2023-01-11T20:57:53.424Z,101247.91
2023-01-11T21:00:25.899Z,101260.00
2023-01-11T21:02:53.648Z,101263.25
2023-01-11T21:05:21.363Z,101256.28
2023-01-11T21:07:49.085Z,101247.72
2023-01-11T21:10:18.011Z,101252.25
2023-01-11T21:15:16.019Z,101243.34
2023-01-11T21:17:43.411Z,101237.59
2023-01-11T21:20:11.368Z,101239.19
2023-01-11T21:22:42.723Z,101235.88
2023-01-11T21:25:10.316Z,101225.44
2023-01-11T21:27:40.487Z,101224.66
2023-01-11T21:30:11.275Z,101234.38
2023-01-11T21:32:41.869Z,101225.91
2023-01-11T21:35:12.820Z,101233.56
2023-01-11T21:37:40.960Z,101232.78
2023-01-11T21:40:11.794Z,101235.31
2023-01-11T21:42:45.367Z,101240.16
2023-01-11T21:45:20.649Z,101239.75
2023-01-11T21:47:48.677Z,101253.81
2023-01-11T21:50:19.810Z,101263.91
2023-01-11T21:52:50.200Z,101265.56
2023-01-11T21:55:20.814Z,101260.31
2023-01-11T21:57:49.113Z,101275.63
2023-01-11T22:00:19.617Z,101278.47
2023-01-11T22:02:52.688Z,101281.19
2023-01-11T22:05:20.448Z,101284.09
2023-01-11T22:07:53.856Z,101280.63
2023-01-11T22:10:24.769Z,101273.03
2023-01-11T22:12:53.307Z,101266.63
2023-01-11T22:15:20.739Z,101263.22
2023-01-11T22:17:47.945Z,101254.91
2023-01-11T22:20:18.491Z,101243.75
2023-01-11T22:22:46.216Z,101245.84
2023-01-11T22:25:17.627Z,101250.09
2023-01-11T22:27:45.669Z,101245.56
2023-01-11T22:30:19.872Z,101232.53
2023-01-11T22:32:50.313Z,101221.59
2023-01-11T22:35:17.967Z,101204.31
2023-01-11T22:37:49.858Z,101192.63
2023-01-11T22:40:28.027Z,101176.06
2023-01-11T22:42:55.631Z,101177.31
2023-01-11T22:45:29.823Z,101164.75
2023-01-11T22:48:01.732Z,101152.59
2023-01-11T22:50:29.480Z,101167.88
2023-01-11T22:53:03.265Z,101198.34
2023-01-11T22:55:34.054Z,101196.63
2023-01-11T22:58:01.633Z,101211.03
2023-01-11T23:00:31.860Z,101235.78
2023-01-11T23:03:05.078Z,101261.03
2023-01-11T23:05:32.701Z,101268.53
2023-01-11T23:08:00.607Z,101280.94
2023-01-11T23:10:31.596Z,101283.72
2023-01-11T23:13:21.661Z,101301.47
2023-01-11T23:15:54.374Z,101303.88
2023-01-11T23:18:22.655Z,101300.09
2023-01-11T23:20:50.657Z,101294.84
2023-01-11T23:23:18.451Z,101305.00
2023-01-11T23:25:49.611Z,101308.19
2023-01-11T23:28:17.205Z,101301.63
2023-01-11T23:30:50.852Z,101298.81
2023-01-11T23:33:18.691Z,101309.72
2023-01-11T23:35:58.224Z,101315.66
2023-01-11T23:38:32.665Z,101325.78
2023-01-11T23:41:32.985Z,101324.13
2023-01-11T23:44:01.866Z,101323.78
2023-01-11T23:46:48.285Z,101327.72
2023-01-11T23:49:15.875Z,101322.91
2023-01-11T23:51:45.825Z,101331.31
2023-01-11T23:54:17.108Z,101324.47
2023-01-11T23:56:44.693Z,101321.19
2023-01-11T23:59:15.827Z,101322.38
